sensor_id;sensor_type;location;lat;lon;timestamp;P1;durP1;ratioP1;P2;durP2;ratioP2
52858;SDS011;38721;53.098;6.596;2023-02-12T00:01:42;28.30;;;12.48;;
52858;SDS011;38721;53.098;6.596;2023-02-12T00:04:08;29.77;;;13.05;;
52858;SDS011;38721;53.098;6.596;2023-02-12T00:06:33;29.13;;;13.00;;
52858;SDS011;38721;53.098;6.596;2023-02-12T00:08:59;30.00;;;13.88;;
52858;SDS011;38721;53.098;6.596;2023-02-12T00:11:26;30.83;;;12.77;;
52858;SDS011;38721;53.098;6.596;2023-02-12T00:13:55;30.60;;;14.35;;
52858;SDS011;38721;53.098;6.596;2023-02-12T00:16:23;31.92;;;13.32;;
52858;SDS011;38721;53.098;6.596;2023-02-12T00:18:51;34.45;;;13.52;;
52858;SDS011;38721;53.098;6.596;2023-02-12T00:21:19;32.45;;;14.27;;
52858;SDS011;38721;53.098;6.596;2023-02-12T00:23:46;26.63;;;12.57;;
52858;SDS011;38721;53.098;6.596;2023-02-12T00:26:13;35.00;;;14.07;;
52858;SDS011;38721;53.098;6.596;2023-02-12T00:28:40;31.38;;;14.57;;
52858;SDS011;38721;53.098;6.596;2023-02-12T00:31:07;39.03;;;14.50;;
52858;SDS011;38721;53.098;6.596;2023-02-12T00:33:34;39.88;;;15.75;;
52858;SDS011;38721;53.098;6.596;2023-02-12T00:36:00;43.67;;;15.88;;
52858;SDS011;38721;53.098;6.596;2023-02-12T00:38:25;44.05;;;17.05;;
52858;SDS011;38721;53.098;6.596;2023-02-12T00:40:51;52.13;;;17.40;;
52858;SDS011;38721;53.098;6.596;2023-02-12T00:43:17;49.83;;;16.60;;
52858;SDS011;38721;53.098;6.596;2023-02-12T00:45:44;45.00;;;15.88;;
52858;SDS011;38721;53.098;6.596;2023-02-12T00:48:10;53.60;;;16.30;;
52858;SDS011;38721;53.098;6.596;2023-02-12T00:50:36;38.30;;;14.88;;
52858;SDS011;38721;53.098;6.596;2023-02-12T00:53:02;46.22;;;16.80;;
52858;SDS011;38721;53.098;6.596;2023-02-12T00:55:27;38.30;;;15.43;;
52858;SDS011;38721;53.098;6.596;2023-02-12T00:57:55;49.28;;;15.27;;
52858;SDS011;38721;53.098;6.596;2023-02-12T01:00:21;40.22;;;16.38;;
52858;SDS011;38721;53.098;6.596;2023-02-12T01:02:46;40.05;;;16.00;;
52858;SDS011;38721;53.098;6.596;2023-02-12T01:05:12;43.33;;;15.68;;
52858;SDS011;38721;53.098;6.596;2023-02-12T01:07:38;35.67;;;15.90;;
52858;SDS011;38721;53.098;6.596;2023-02-12T01:10:05;37.53;;;16.20;;
52858;SDS011;38721;53.098;6.596;2023-02-12T01:12:32;43.13;;;16.48;;
52858;SDS011;38721;53.098;6.596;2023-02-12T01:14:58;49.58;;;16.92;;
52858;SDS011;38721;53.098;6.596;2023-02-12T01:17:24;42.60;;;16.67;;
52858;SDS011;38721;53.098;6.596;2023-02-12T01:19:50;44.97;;;17.05;;
52858;SDS011;38721;53.098;6.596;2023-02-12T01:22:15;39.85;;;16.30;;
52858;SDS011;38721;53.098;6.596;2023-02-12T01:24:41;44.80;;;16.30;;
52858;SDS011;38721;53.098;6.596;2023-02-12T01:27:07;41.72;;;17.30;;
52858;SDS011;38721;53.098;6.596;2023-02-12T01:29:33;48.28;;;16.77;;
52858;SDS011;38721;53.098;6.596;2023-02-12T01:31:58;51.00;;;16.85;;
52858;SDS011;38721;53.098;6.596;2023-02-12T01:34:24;48.28;;;17.58;;
52858;SDS011;38721;53.098;6.596;2023-02-12T01:36:49;41.88;;;17.40;;
52858;SDS011;38721;53.098;6.596;2023-02-12T01:39:15;46.25;;;18.60;;
52858;SDS011;38721;53.098;6.596;2023-02-12T01:41:42;48.15;;;16.80;;
52858;SDS011;38721;53.098;6.596;2023-02-12T01:46:48;47.47;;;16.77;;
52858;SDS011;38721;53.098;6.596;2023-02-12T01:49:34;46.28;;;17.40;;
52858;SDS011;38721;53.098;6.596;2023-02-12T01:52:07;48.70;;;17.48;;
52858;SDS011;38721;53.098;6.596;2023-02-12T01:54:39;44.38;;;17.30;;
52858;SDS011;38721;53.098;6.596;2023-02-12T01:57:07;48.03;;;19.05;;
52858;SDS011;38721;53.098;6.596;2023-02-12T01:59:34;44.28;;;18.65;;
52858;SDS011;38721;53.098;6.596;2023-02-12T02:02:02;58.45;;;18.20;;
52858;SDS011;38721;53.098;6.596;2023-02-12T02:04:30;65.05;;;19.65;;
52858;SDS011;38721;53.098;6.596;2023-02-12T02:07:03;57.90;;;18.85;;
52858;SDS011;38721;53.098;6.596;2023-02-12T02:09:30;61.42;;;20.70;;
52858;SDS011;38721;53.098;6.596;2023-02-12T02:11:59;64.10;;;20.30;;
52858;SDS011;38721;53.098;6.596;2023-02-12T02:14:43;70.05;;;21.60;;
52858;SDS011;38721;53.098;6.596;2023-02-12T02:17:23;83.88;;;22.67;;
52858;SDS011;38721;53.098;6.596;2023-02-12T02:30:30;50.10;;;18.80;;
52858;SDS011;38721;53.098;6.596;2023-02-12T02:38:49;48.40;;;19.50;;
52858;SDS011;38721;53.098;6.596;2023-02-12T02:41:28;54.35;;;20.10;;
52858;SDS011;38721;53.098;6.596;2023-02-12T02:44:07;55.33;;;18.95;;
52858;SDS011;38721;53.098;6.596;2023-02-12T02:46:39;53.15;;;19.98;;
52858;SDS011;38721;53.098;6.596;2023-02-12T02:49:18;55.45;;;20.88;;
52858;SDS011;38721;53.098;6.596;2023-02-12T02:54:26;60.67;;;20.73;;
52858;SDS011;38721;53.098;6.596;2023-02-12T02:56:59;49.22;;;20.73;;
52858;SDS011;38721;53.098;6.596;2023-02-12T02:59:32;65.18;;;20.85;;
52858;SDS011;38721;53.098;6.596;2023-02-12T03:02:05;51.40;;;20.13;;
52858;SDS011;38721;53.098;6.596;2023-02-12T03:04:51;74.82;;;21.75;;
52858;SDS011;38721;53.098;6.596;2023-02-12T03:07:30;71.55;;;23.45;;
52858;SDS011;38721;53.098;6.596;2023-02-12T03:10:11;70.07;;;21.30;;
52858;SDS011;38721;53.098;6.596;2023-02-12T03:15:13;71.20;;;22.40;;
52858;SDS011;38721;53.098;6.596;2023-02-12T03:17:46;70.38;;;22.40;;
52858;SDS011;38721;53.098;6.596;2023-02-12T03:20:48;67.00;;;22.83;;
52858;SDS011;38721;53.098;6.596;2023-02-12T03:23:13;74.28;;;23.05;;
52858;SDS011;38721;53.098;6.596;2023-02-12T03:25:52;64.60;;;22.15;;
52858;SDS011;38721;53.098;6.596;2023-02-12T03:28:26;65.13;;;22.33;;
52858;SDS011;38721;53.098;6.596;2023-02-12T03:31:09;68.13;;;22.65;;
52858;SDS011;38721;53.098;6.596;2023-02-12T03:33:53;69.57;;;22.00;;
52858;SDS011;38721;53.098;6.596;2023-02-12T03:39:07;68.53;;;22.05;;
52858;SDS011;38721;53.098;6.596;2023-02-12T03:41:42;80.15;;;22.88;;
52858;SDS011;38721;53.098;6.596;2023-02-12T03:44:28;71.07;;;22.65;;
52858;SDS011;38721;53.098;6.596;2023-02-12T03:50:09;67.18;;;22.85;;
52858;SDS011;38721;53.098;6.596;2023-02-12T03:52:40;83.68;;;24.23;;
52858;SDS011;38721;53.098;6.596;2023-02-12T03:55:07;76.72;;;22.17;;
52858;SDS011;38721;53.098;6.596;2023-02-12T03:57:35;85.63;;;22.50;;
52858;SDS011;38721;53.098;6.596;2023-02-12T04:00:14;69.18;;;22.67;;
52858;SDS011;38721;53.098;6.596;2023-02-12T04:02:42;74.72;;;22.58;;
52858;SDS011;38721;53.098;6.596;2023-02-12T04:05:26;92.45;;;26.95;;
52858;SDS011;38721;53.098;6.596;2023-02-12T04:07:53;111.43;;;22.73;;
52858;SDS011;38721;53.098;6.596;2023-02-12T04:10:21;76.32;;;21.55;;
52858;SDS011;38721;53.098;6.596;2023-02-12T04:13:20;68.68;;;20.13;;
52858;SDS011;38721;53.098;6.596;2023-02-12T04:18:40;103.88;;;16.45;;
52858;SDS011;38721;53.098;6.596;2023-02-12T04:23:43;85.28;;;18.17;;
52858;SDS011;38721;53.098;6.596;2023-02-12T04:26:22;100.40;;;15.32;;
52858;SDS011;38721;53.098;6.596;2023-02-12T04:29:12;134.32;;;19.85;;
52858;SDS011;38721;53.098;6.596;2023-02-12T04:37:17;103.93;;;16.85;;
52858;SDS011;38721;53.098;6.596;2023-02-12T04:39:48;149.77;;;22.48;;
52858;SDS011;38721;53.098;6.596;2023-02-12T04:42:15;234.95;;;26.83;;
52858;SDS011;38721;53.098;6.596;2023-02-12T04:44:42;125.35;;;17.00;;
52858;SDS011;38721;53.098;6.596;2023-02-12T04:47:10;128.35;;;19.00;;
52858;SDS011;38721;53.098;6.596;2023-02-12T04:49:37;140.65;;;17.38;;
52858;SDS011;38721;53.098;6.596;2023-02-12T04:52:03;151.73;;;19.23;;
52858;SDS011;38721;53.098;6.596;2023-02-12T04:54:29;102.75;;;17.40;;
52858;SDS011;38721;53.098;6.596;2023-02-12T04:56:54;101.80;;;17.58;;
52858;SDS011;38721;53.098;6.596;2023-02-12T04:59:20;216.45;;;24.20;;
52858;SDS011;38721;53.098;6.596;2023-02-12T05:01:46;134.75;;;18.17;;
52858;SDS011;38721;53.098;6.596;2023-02-12T05:04:12;120.90;;;18.60;;
52858;SDS011;38721;53.098;6.596;2023-02-12T05:06:40;62.70;;;17.08;;
52858;SDS011;38721;53.098;6.596;2023-02-12T05:09:07;84.47;;;16.25;;
52858;SDS011;38721;53.098;6.596;2023-02-12T05:11:34;117.20;;;17.55;;
52858;SDS011;38721;53.098;6.596;2023-02-12T05:14:00;91.28;;;18.20;;
52858;SDS011;38721;53.098;6.596;2023-02-12T05:16:26;106.20;;;16.73;;
52858;SDS011;38721;53.098;6.596;2023-02-12T05:18:51;108.47;;;18.02;;
52858;SDS011;38721;53.098;6.596;2023-02-12T05:21:17;95.18;;;18.27;;
52858;SDS011;38721;53.098;6.596;2023-02-12T05:23:43;85.30;;;16.70;;
52858;SDS011;38721;53.098;6.596;2023-02-12T05:26:13;93.13;;;21.60;;
52858;SDS011;38721;53.098;6.596;2023-02-12T05:28:43;104.90;;;19.10;;
52858;SDS011;38721;53.098;6.596;2023-02-12T05:31:09;126.75;;;20.25;;
52858;SDS011;38721;53.098;6.596;2023-02-12T05:33:37;105.88;;;20.27;;
52858;SDS011;38721;53.098;6.596;2023-02-12T05:36:06;151.98;;;22.33;;
52858;SDS011;38721;53.098;6.596;2023-02-12T05:38:34;86.05;;;17.58;;
52858;SDS011;38721;53.098;6.596;2023-02-12T05:41:04;71.50;;;18.27;;
52858;SDS011;38721;53.098;6.596;2023-02-12T05:43:34;108.40;;;20.27;;
52858;SDS011;38721;53.098;6.596;2023-02-12T05:46:01;138.63;;;22.15;;
52858;SDS011;38721;53.098;6.596;2023-02-12T05:48:28;51.22;;;16.60;;
52858;SDS011;38721;53.098;6.596;2023-02-12T05:51:00;90.82;;;19.13;;
52858;SDS011;38721;53.098;6.596;2023-02-12T05:53:30;56.67;;;17.05;;
52858;SDS011;38721;53.098;6.596;2023-02-12T05:56:10;97.20;;;18.75;;
52858;SDS011;38721;53.098;6.596;2023-02-12T05:58:43;143.32;;;22.15;;
52858;SDS011;38721;53.098;6.596;2023-02-12T06:01:12;145.18;;;22.75;;
52858;SDS011;38721;53.098;6.596;2023-02-12T06:03:38;177.75;;;22.88;;
52858;SDS011;38721;53.098;6.596;2023-02-12T06:06:04;157.80;;;23.23;;
52858;SDS011;38721;53.098;6.596;2023-02-12T06:08:31;123.90;;;21.10;;
52858;SDS011;38721;53.098;6.596;2023-02-12T06:11:03;216.98;;;28.75;;
52858;SDS011;38721;53.098;6.596;2023-02-12T06:13:31;101.67;;;21.50;;
52858;SDS011;38721;53.098;6.596;2023-02-12T06:15:58;107.80;;;22.65;;
52858;SDS011;38721;53.098;6.596;2023-02-12T06:18:24;74.03;;;21.15;;
52858;SDS011;38721;53.098;6.596;2023-02-12T06:20:50;69.50;;;21.95;;
52858;SDS011;38721;53.098;6.596;2023-02-12T06:23:19;85.63;;;23.52;;
52858;SDS011;38721;53.098;6.596;2023-02-12T06:25:49;83.22;;;24.67;;
52858;SDS011;38721;53.098;6.596;2023-02-12T06:28:15;76.20;;;22.58;;
52858;SDS011;38721;53.098;6.596;2023-02-12T06:30:41;75.72;;;22.25;;
52858;SDS011;38721;53.098;6.596;2023-02-12T06:33:07;63.97;;;21.02;;
52858;SDS011;38721;53.098;6.596;2023-02-12T06:35:33;59.30;;;19.48;;
52858;SDS011;38721;53.098;6.596;2023-02-12T06:38:00;52.10;;;19.10;;
52858;SDS011;38721;53.098;6.596;2023-02-12T06:40:26;54.30;;;19.80;;
52858;SDS011;38721;53.098;6.596;2023-02-12T06:42:52;41.10;;;17.25;;
52858;SDS011;38721;53.098;6.596;2023-02-12T06:45:18;52.03;;;18.42;;
52858;SDS011;38721;53.098;6.596;2023-02-12T06:47:43;48.58;;;17.38;;
52858;SDS011;38721;53.098;6.596;2023-02-12T06:50:09;47.20;;;17.85;;
52858;SDS011;38721;53.098;6.596;2023-02-12T06:52:35;43.35;;;16.13;;
52858;SDS011;38721;53.098;6.596;2023-02-12T06:55:01;39.85;;;17.52;;
52858;SDS011;38721;53.098;6.596;2023-02-12T06:57:27;40.92;;;17.02;;
52858;SDS011;38721;53.098;6.596;2023-02-12T06:59:53;45.45;;;17.70;;
52858;SDS011;38721;53.098;6.596;2023-02-12T07:02:19;45.33;;;17.27;;
52858;SDS011;38721;53.098;6.596;2023-02-12T07:04:45;42.47;;;16.80;;
52858;SDS011;38721;53.098;6.596;2023-02-12T07:07:10;42.35;;;17.55;;
52858;SDS011;38721;53.098;6.596;2023-02-12T07:09:36;43.63;;;17.33;;
52858;SDS011;38721;53.098;6.596;2023-02-12T07:12:02;37.88;;;16.98;;
52858;SDS011;38721;53.098;6.596;2023-02-12T07:14:28;41.30;;;16.63;;
52858;SDS011;38721;53.098;6.596;2023-02-12T07:16:57;39.22;;;15.88;;
52858;SDS011;38721;53.098;6.596;2023-02-12T07:19:23;36.63;;;15.98;;
52858;SDS011;38721;53.098;6.596;2023-02-12T07:21:48;37.35;;;16.30;;
52858;SDS011;38721;53.098;6.596;2023-02-12T07:24:14;39.15;;;16.02;;
52858;SDS011;38721;53.098;6.596;2023-02-12T07:26:42;33.13;;;15.75;;
52858;SDS011;38721;53.098;6.596;2023-02-12T07:29:08;39.47;;;16.80;;
52858;SDS011;38721;53.098;6.596;2023-02-12T07:31:37;35.13;;;15.90;;
52858;SDS011;38721;53.098;6.596;2023-02-12T07:34:06;38.38;;;16.17;;
52858;SDS011;38721;53.098;6.596;2023-02-12T07:36:32;36.28;;;15.75;;
52858;SDS011;38721;53.098;6.596;2023-02-12T07:38:58;36.03;;;15.63;;
52858;SDS011;38721;53.098;6.596;2023-02-12T07:41:29;38.92;;;15.70;;
52858;SDS011;38721;53.098;6.596;2023-02-12T07:43:58;30.15;;;15.10;;
52858;SDS011;38721;53.098;6.596;2023-02-12T07:46:35;33.72;;;16.42;;
52858;SDS011;38721;53.098;6.596;2023-02-12T07:49:10;35.33;;;15.60;;
52858;SDS011;38721;53.098;6.596;2023-02-12T07:51:42;33.42;;;15.68;;
52858;SDS011;38721;53.098;6.596;2023-02-12T07:54:08;34.60;;;17.00;;
52858;SDS011;38721;53.098;6.596;2023-02-12T07:56:35;35.15;;;16.77;;
52858;SDS011;38721;53.098;6.596;2023-02-12T07:59:10;40.13;;;17.00;;
52858;SDS011;38721;53.098;6.596;2023-02-12T08:01:39;33.38;;;15.77;;
52858;SDS011;38721;53.098;6.596;2023-02-12T08:04:11;34.45;;;17.15;;
52858;SDS011;38721;53.098;6.596;2023-02-12T08:06:39;43.30;;;17.70;;
52858;SDS011;38721;53.098;6.596;2023-02-12T08:09:08;38.17;;;16.88;;
52858;SDS011;38721;53.098;6.596;2023-02-12T08:11:36;39.78;;;17.58;;
52858;SDS011;38721;53.098;6.596;2023-02-12T08:14:03;40.50;;;17.70;;
52858;SDS011;38721;53.098;6.596;2023-02-12T08:16:29;42.78;;;17.55;;
52858;SDS011;38721;53.098;6.596;2023-02-12T08:18:56;42.80;;;17.98;;
52858;SDS011;38721;53.098;6.596;2023-02-12T08:21:24;47.75;;;18.33;;
52858;SDS011;38721;53.098;6.596;2023-02-12T08:23:52;44.70;;;17.92;;
52858;SDS011;38721;53.098;6.596;2023-02-12T08:26:20;45.28;;;18.65;;
52858;SDS011;38721;53.098;6.596;2023-02-12T08:28:51;45.55;;;19.20;;
52858;SDS011;38721;53.098;6.596;2023-02-12T08:31:33;52.03;;;20.67;;
52858;SDS011;38721;53.098;6.596;2023-02-12T08:34:00;48.83;;;19.10;;
52858;SDS011;38721;53.098;6.596;2023-02-12T08:36:27;48.45;;;19.83;;
52858;SDS011;38721;53.098;6.596;2023-02-12T08:39:04;53.78;;;21.15;;
52858;SDS011;38721;53.098;6.596;2023-02-12T08:41:31;52.25;;;20.23;;
52858;SDS011;38721;53.098;6.596;2023-02-12T08:43:58;46.00;;;19.92;;
52858;SDS011;38721;53.098;6.596;2023-02-12T08:46:26;50.45;;;21.13;;
52858;SDS011;38721;53.098;6.596;2023-02-12T08:48:57;54.03;;;21.40;;
52858;SDS011;38721;53.098;6.596;2023-02-12T08:51:26;52.08;;;20.40;;
52858;SDS011;38721;53.098;6.596;2023-02-12T08:53:59;53.35;;;21.70;;
52858;SDS011;38721;53.098;6.596;2023-02-12T08:56:29;50.97;;;20.65;;
52858;SDS011;38721;53.098;6.596;2023-02-12T08:58:57;49.45;;;22.85;;
52858;SDS011;38721;53.098;6.596;2023-02-12T09:01:24;51.95;;;21.08;;
52858;SDS011;38721;53.098;6.596;2023-02-12T09:03:51;50.83;;;22.05;;
52858;SDS011;38721;53.098;6.596;2023-02-12T09:06:18;48.00;;;21.73;;
52858;SDS011;38721;53.098;6.596;2023-02-12T09:08:45;50.28;;;22.58;;
52858;SDS011;38721;53.098;6.596;2023-02-12T09:11:13;46.40;;;22.67;;
52858;SDS011;38721;53.098;6.596;2023-02-12T09:13:44;49.03;;;23.92;;
52858;SDS011;38721;53.098;6.596;2023-02-12T09:16:11;49.70;;;22.75;;
52858;SDS011;38721;53.098;6.596;2023-02-12T09:18:40;46.20;;;21.75;;
52858;SDS011;38721;53.098;6.596;2023-02-12T09:21:13;50.17;;;23.35;;
52858;SDS011;38721;53.098;6.596;2023-02-12T09:23:41;44.53;;;22.38;;
52858;SDS011;38721;53.098;6.596;2023-02-12T09:26:09;45.85;;;22.48;;
52858;SDS011;38721;53.098;6.596;2023-02-12T09:28:38;40.95;;;20.58;;
52858;SDS011;38721;53.098;6.596;2023-02-12T09:31:05;47.25;;;23.17;;
52858;SDS011;38721;53.098;6.596;2023-02-12T09:33:38;42.05;;;21.92;;
52858;SDS011;38721;53.098;6.596;2023-02-12T09:36:07;44.55;;;22.55;;
52858;SDS011;38721;53.098;6.596;2023-02-12T09:38:38;43.45;;;22.27;;
52858;SDS011;38721;53.098;6.596;2023-02-12T09:43:52;45.65;;;21.85;;
52858;SDS011;38721;53.098;6.596;2023-02-12T09:49:18;44.60;;;22.13;;
52858;SDS011;38721;53.098;6.596;2023-02-12T09:52:04;40.90;;;20.13;;
52858;SDS011;38721;53.098;6.596;2023-02-12T09:54:37;42.03;;;20.17;;
52858;SDS011;38721;53.098;6.596;2023-02-12T09:57:05;42.00;;;22.05;;
52858;SDS011;38721;53.098;6.596;2023-02-12T10:00:07;35.70;;;19.50;;
52858;SDS011;38721;53.098;6.596;2023-02-12T10:02:35;38.85;;;20.48;;
52858;SDS011;38721;53.098;6.596;2023-02-12T10:05:03;40.97;;;20.73;;
52858;SDS011;38721;53.098;6.596;2023-02-12T10:07:35;39.80;;;21.08;;
52858;SDS011;38721;53.098;6.596;2023-02-12T10:13:17;36.40;;;19.70;;
52858;SDS011;38721;53.098;6.596;2023-02-12T10:16:16;41.13;;;20.52;;
52858;SDS011;38721;53.098;6.596;2023-02-12T10:19:11;33.97;;;19.17;;
52858;SDS011;38721;53.098;6.596;2023-02-12T10:22:11;35.75;;;19.80;;
52858;SDS011;38721;53.098;6.596;2023-02-12T10:24:43;37.03;;;19.73;;
52858;SDS011;38721;53.098;6.596;2023-02-12T10:27:14;30.50;;;18.40;;
52858;SDS011;38721;53.098;6.596;2023-02-12T10:29:42;32.05;;;17.85;;
52858;SDS011;38721;53.098;6.596;2023-02-12T10:32:18;32.40;;;19.02;;
52858;SDS011;38721;53.098;6.596;2023-02-12T10:34:49;30.10;;;18.48;;
52858;SDS011;38721;53.098;6.596;2023-02-12T10:37:31;29.75;;;17.80;;
52858;SDS011;38721;53.098;6.596;2023-02-12T10:40:26;32.28;;;18.15;;
52858;SDS011;38721;53.098;6.596;2023-02-12T10:42:56;25.58;;;16.77;;
52858;SDS011;38721;53.098;6.596;2023-02-12T10:48:05;27.70;;;16.85;;
52858;SDS011;38721;53.098;6.596;2023-02-12T10:53:40;25.25;;;14.82;;
52858;SDS011;38721;53.098;6.596;2023-02-12T11:01:19;25.00;;;14.20;;
52858;SDS011;38721;53.098;6.596;2023-02-12T11:03:50;24.48;;;14.18;;
52858;SDS011;38721;53.098;6.596;2023-02-12T11:06:18;21.38;;;13.52;;
52858;SDS011;38721;53.098;6.596;2023-02-12T11:08:49;25.40;;;14.60;;
52858;SDS011;38721;53.098;6.596;2023-02-12T11:14:01;21.50;;;13.77;;
52858;SDS011;38721;53.098;6.596;2023-02-12T11:16:34;19.85;;;12.38;;
52858;SDS011;38721;53.098;6.596;2023-02-12T11:19:19;20.33;;;11.85;;
52858;SDS011;38721;53.098;6.596;2023-02-12T11:21:47;21.58;;;12.50;;
52858;SDS011;38721;53.098;6.596;2023-02-12T11:29:40;19.52;;;11.90;;
52858;SDS011;38721;53.098;6.596;2023-02-12T11:32:16;18.10;;;12.02;;
52858;SDS011;38721;53.098;6.596;2023-02-12T11:34:43;18.80;;;11.70;;
52858;SDS011;38721;53.098;6.596;2023-02-12T11:37:14;16.77;;;10.40;;
52858;SDS011;38721;53.098;6.596;2023-02-12T11:39:45;15.93;;;10.45;;
52858;SDS011;38721;53.098;6.596;2023-02-12T11:44:47;15.68;;;10.50;;
52858;SDS011;38721;53.098;6.596;2023-02-12T11:47:23;15.57;;;9.68;;
52858;SDS011;38721;53.098;6.596;2023-02-12T11:52:48;15.32;;;10.05;;
52858;SDS011;38721;53.098;6.596;2023-02-12T11:55:20;17.25;;;9.68;;
52858;SDS011;38721;53.098;6.596;2023-02-12T11:57:49;14.10;;;9.43;;
52858;SDS011;38721;53.098;6.596;2023-02-12T12:05:31;15.55;;;10.00;;
52858;SDS011;38721;53.098;6.596;2023-02-12T12:08:02;15.40;;;9.60;;
52858;SDS011;38721;53.098;6.596;2023-02-12T12:10:37;13.32;;;9.35;;
52858;SDS011;38721;53.098;6.596;2023-02-12T12:13:23;13.20;;;8.48;;
52858;SDS011;38721;53.098;6.596;2023-02-12T12:16:03;13.13;;;8.65;;
52858;SDS011;38721;53.098;6.596;2023-02-12T12:18:55;12.10;;;8.43;;
52858;SDS011;38721;53.098;6.596;2023-02-12T12:22:10;12.15;;;8.75;;
52858;SDS011;38721;53.098;6.596;2023-02-12T12:24:50;14.63;;;8.95;;
52858;SDS011;38721;53.098;6.596;2023-02-12T12:30:23;12.98;;;8.73;;
52858;SDS011;38721;53.098;6.596;2023-02-12T12:32:58;14.00;;;8.85;;
52858;SDS011;38721;53.098;6.596;2023-02-12T12:35:30;12.05;;;8.27;;
52858;SDS011;38721;53.098;6.596;2023-02-12T12:43:37;11.88;;;7.95;;
52858;SDS011;38721;53.098;6.596;2023-02-12T12:46:17;12.93;;;8.27;;
52858;SDS011;38721;53.098;6.596;2023-02-12T12:48:53;13.45;;;8.18;;
52858;SDS011;38721;53.098;6.596;2023-02-12T12:57:53;13.90;;;8.40;;
52858;SDS011;38721;53.098;6.596;2023-02-12T13:06:24;8.65;;;4.65;;
52858;SDS011;38721;53.098;6.596;2023-02-12T13:12:07;7.82;;;2.85;;
52858;SDS011;38721;53.098;6.596;2023-02-12T13:20:26;7.55;;;4.55;;
52858;SDS011;38721;53.098;6.596;2023-02-12T13:23:16;7.93;;;5.07;;
52858;SDS011;38721;53.098;6.596;2023-02-12T13:25:49;8.07;;;4.50;;
52858;SDS011;38721;53.098;6.596;2023-02-12T13:28:33;8.38;;;4.65;;
52858;SDS011;38721;53.098;6.596;2023-02-12T13:31:07;9.80;;;4.88;;
52858;SDS011;38721;53.098;6.596;2023-02-12T13:33:45;6.88;;;4.25;;
52858;SDS011;38721;53.098;6.596;2023-02-12T13:36:16;3.08;;;1.77;;
52858;SDS011;38721;53.098;6.596;2023-02-12T13:38:47;2.05;;;1.20;;
52858;SDS011;38721;53.098;6.596;2023-02-12T13:41:19;1.80;;;1.20;;
52858;SDS011;38721;53.098;6.596;2023-02-12T13:43:57;3.50;;;1.80;;
52858;SDS011;38721;53.098;6.596;2023-02-12T13:51:58;3.40;;;2.50;;
52858;SDS011;38721;53.098;6.596;2023-02-12T13:57:28;4.53;;;2.88;;
52858;SDS011;38721;53.098;6.596;2023-02-12T13:59:55;5.78;;;3.35;;
52858;SDS011;38721;53.098;6.596;2023-02-12T14:13:43;5.20;;;2.90;;
52858;SDS011;38721;53.098;6.596;2023-02-12T14:15:58;3.53;;;2.65;;
52858;SDS011;38721;53.098;6.596;2023-02-12T14:22:10;4.45;;;2.83;;
52858;SDS011;38721;53.098;6.596;2023-02-12T14:24:49;5.68;;;3.10;;
52858;SDS011;38721;53.098;6.596;2023-02-12T14:35:29;5.00;;;2.75;;
52858;SDS011;38721;53.098;6.596;2023-02-12T14:38:03;5.50;;;2.90;;
52858;SDS011;38721;53.098;6.596;2023-02-12T14:40:48;5.80;;;2.97;;
52858;SDS011;38721;53.098;6.596;2023-02-12T14:51:19;5.63;;;3.20;;
52858;SDS011;38721;53.098;6.596;2023-02-12T14:54:02;4.50;;;2.65;;
52858;SDS011;38721;53.098;6.596;2023-02-12T14:56:29;3.45;;;2.10;;
52858;SDS011;38721;53.098;6.596;2023-02-12T14:59:05;3.67;;;2.20;;
52858;SDS011;38721;53.098;6.596;2023-02-12T15:01:36;4.85;;;2.50;;
52858;SDS011;38721;53.098;6.596;2023-02-12T15:04:08;3.13;;;2.30;;
52858;SDS011;38721;53.098;6.596;2023-02-12T15:06:54;4.72;;;2.38;;
52858;SDS011;38721;53.098;6.596;2023-02-12T15:09:31;3.38;;;2.65;;
52858;SDS011;38721;53.098;6.596;2023-02-12T15:12:36;4.65;;;2.95;;
52858;SDS011;38721;53.098;6.596;2023-02-12T15:15:04;6.13;;;3.15;;
52858;SDS011;38721;53.098;6.596;2023-02-12T15:18:10;5.22;;;3.35;;
52858;SDS011;38721;53.098;6.596;2023-02-12T15:21:05;5.03;;;3.10;;
52858;SDS011;38721;53.098;6.596;2023-02-12T15:23:42;6.45;;;3.83;;
52858;SDS011;38721;53.098;6.596;2023-02-12T15:26:16;4.13;;;3.20;;
52858;SDS011;38721;53.098;6.596;2023-02-12T15:28:45;5.00;;;3.20;;
52858;SDS011;38721;53.098;6.596;2023-02-12T15:31:14;6.07;;;3.40;;
52858;SDS011;38721;53.098;6.596;2023-02-12T15:33:45;5.05;;;3.25;;
52858;SDS011;38721;53.098;6.596;2023-02-12T15:36:17;3.78;;;3.13;;
52858;SDS011;38721;53.098;6.596;2023-02-12T15:38:47;4.78;;;3.78;;
52858;SDS011;38721;53.098;6.596;2023-02-12T15:41:27;5.82;;;3.70;;
52858;SDS011;38721;53.098;6.596;2023-02-12T15:43:55;4.18;;;2.90;;
52858;SDS011;38721;53.098;6.596;2023-02-12T15:46:22;7.40;;;3.58;;
52858;SDS011;38721;53.098;6.596;2023-02-12T15:48:47;4.55;;;3.10;;
52858;SDS011;38721;53.098;6.596;2023-02-12T15:53:53;7.28;;;3.00;;
52858;SDS011;38721;53.098;6.596;2023-02-12T15:56:22;4.88;;;3.17;;
52858;SDS011;38721;53.098;6.596;2023-02-12T15:58:50;5.85;;;3.35;;
52858;SDS011;38721;53.098;6.596;2023-02-12T16:01:22;4.40;;;3.17;;
52858;SDS011;38721;53.098;6.596;2023-02-12T16:03:51;6.72;;;3.60;;
52858;SDS011;38721;53.098;6.596;2023-02-12T16:06:20;4.25;;;2.70;;
52858;SDS011;38721;53.098;6.596;2023-02-12T16:08:57;4.03;;;2.80;;
52858;SDS011;38721;53.098;6.596;2023-02-12T16:11:27;3.58;;;2.58;;
52858;SDS011;38721;53.098;6.596;2023-02-12T16:13:55;4.65;;;2.72;;
52858;SDS011;38721;53.098;6.596;2023-02-12T16:16:25;3.42;;;2.53;;
52858;SDS011;38721;53.098;6.596;2023-02-12T16:19:06;3.70;;;2.45;;
52858;SDS011;38721;53.098;6.596;2023-02-12T16:21:44;3.72;;;2.40;;
52858;SDS011;38721;53.098;6.596;2023-02-12T16:26:56;3.40;;;2.60;;
52858;SDS011;38721;53.098;6.596;2023-02-12T16:29:25;3.35;;;2.50;;
52858;SDS011;38721;53.098;6.596;2023-02-12T16:31:58;4.53;;;2.85;;
52858;SDS011;38721;53.098;6.596;2023-02-12T16:34:30;5.07;;;2.80;;
52858;SDS011;38721;53.098;6.596;2023-02-12T16:37:02;3.83;;;2.70;;
52858;SDS011;38721;53.098;6.596;2023-02-12T16:42:24;5.38;;;3.15;;
52858;SDS011;38721;53.098;6.596;2023-02-12T16:44:56;5.47;;;3.15;;
52858;SDS011;38721;53.098;6.596;2023-02-12T16:47:22;4.80;;;2.97;;
52858;SDS011;38721;53.098;6.596;2023-02-12T16:49:59;5.88;;;3.33;;
52858;SDS011;38721;53.098;6.596;2023-02-12T16:52:27;4.22;;;3.28;;
52858;SDS011;38721;53.098;6.596;2023-02-12T16:55:01;4.43;;;3.47;;
52858;SDS011;38721;53.098;6.596;2023-02-12T16:57:27;6.45;;;3.70;;
52858;SDS011;38721;53.098;6.596;2023-02-12T16:59:53;3.47;;;2.80;;
52858;SDS011;38721;53.098;6.596;2023-02-12T17:02:19;5.05;;;3.17;;
52858;SDS011;38721;53.098;6.596;2023-02-12T17:04:44;3.28;;;2.80;;
52858;SDS011;38721;53.098;6.596;2023-02-12T17:07:21;4.15;;;3.17;;
52858;SDS011;38721;53.098;6.596;2023-02-12T17:09:49;3.70;;;3.30;;
52858;SDS011;38721;53.098;6.596;2023-02-12T17:12:15;4.18;;;3.20;;
52858;SDS011;38721;53.098;6.596;2023-02-12T17:14:41;4.53;;;3.15;;
52858;SDS011;38721;53.098;6.596;2023-02-12T17:17:07;4.90;;;3.40;;
52858;SDS011;38721;53.098;6.596;2023-02-12T17:19:32;4.75;;;3.70;;
52858;SDS011;38721;53.098;6.596;2023-02-12T17:21:58;4.68;;;4.07;;
52858;SDS011;38721;53.098;6.596;2023-02-12T17:24:25;6.78;;;4.18;;
52858;SDS011;38721;53.098;6.596;2023-02-12T17:26:53;5.75;;;4.03;;